createdAt,value
2017-10-09T00:00:59.763Z,0
2017-10-09T00:02:00.554Z,0
2017-10-09T00:03:01.158Z,0
2017-10-09T00:04:01.765Z,0
2017-10-09T00:05:02.403Z,0
2017-10-09T00:06:03.010Z,0
2017-10-09T00:07:03.774Z,0
2017-10-09T00:08:04.380Z,0
2017-10-09T00:09:04.988Z,0
2017-10-09T00:10:05.596Z,0
2017-10-09T00:11:06.202Z,0
2017-10-09T00:12:06.958Z,0
2017-10-09T00:13:07.565Z,0
2017-10-09T00:14:08.178Z,0
2017-10-09T00:15:08.784Z,0
2017-10-09T00:16:09.391Z,0
2017-10-09T00:17:10.178Z,0
2017-10-09T00:18:10.785Z,0
2017-10-09T00:19:11.394Z,0
2017-10-09T00:20:12.009Z,0
2017-10-09T00:21:12.650Z,0
2017-10-09T00:22:13.408Z,0
2017-10-09T00:23:14.016Z,0
2017-10-09T00:24:14.623Z,0
2017-10-09T00:25:15.265Z,0
2017-10-09T00:26:15.870Z,0
2017-10-09T00:27:16.634Z,0
2017-10-09T00:28:17.239Z,0
2017-10-09T00:29:17.847Z,0
2017-10-09T00:30:18.455Z,0
2017-10-09T00:31:19.071Z,0
2017-10-09T00:32:19.856Z,0
2017-10-09T00:33:20.466Z,0
2017-10-09T00:34:21.073Z,0
2017-10-09T00:35:21.711Z,0
2017-10-09T00:36:22.319Z,0
2017-10-09T00:37:23.086Z,0
2017-10-09T00:38:23.688Z,0
2017-10-09T00:39:24.297Z,0
2017-10-09T00:40:24.906Z,0
2017-10-09T00:41:25.515Z,0
2017-10-09T00:42:26.274Z,0
2017-10-09T00:43:26.919Z,0
2017-10-09T00:44:27.522Z,0
2017-10-09T00:45:28.131Z,0
2017-10-09T00:46:28.739Z,0
2017-10-09T00:47:29.503Z,0
2017-10-09T00:48:30.110Z,0
2017-10-09T00:49:30.717Z,0
2017-10-09T00:50:31.325Z,0
2017-10-09T00:51:31.932Z,0
2017-10-09T00:52:32.688Z,0
2017-10-09T00:53:33.296Z,0
2017-10-09T00:54:33.903Z,0
2017-10-09T00:55:34.512Z,0
2017-10-09T00:56:35.120Z,0
2017-10-09T00:57:35.877Z,0
2017-10-09T00:58:36.490Z,0
2017-10-09T00:59:37.097Z,0
2017-10-09T01:00:37.709Z,0
2017-10-09T01:01:38.321Z,0
2017-10-09T01:02:39.076Z,0
2017-10-09T01:03:39.689Z,0
2017-10-09T01:04:40.295Z,0
2017-10-09T01:05:40.903Z,0
2017-10-09T01:06:41.510Z,0
2017-10-09T01:07:42.268Z,0
2017-10-09T01:08:42.876Z,0
2017-10-09T01:09:43.484Z,0
2017-10-09T01:10:44.097Z,0
2017-10-09T01:11:44.739Z,0
2017-10-09T01:12:45.528Z,0
2017-10-09T01:13:46.134Z,0
2017-10-09T01:14:46.748Z,0
2017-10-09T01:15:47.354Z,0
2017-10-09T01:16:47.964Z,0
2017-10-09T01:17:48.722Z,0
2017-10-09T01:18:49.329Z,0
2017-10-09T01:19:49.944Z,0
2017-10-09T01:20:50.554Z,0
2017-10-09T01:21:51.160Z,0
2017-10-09T01:22:51.958Z,0
2017-10-09T01:23:52.561Z,0
2017-10-09T01:24:53.174Z,0
2017-10-09T01:25:53.781Z,0
2017-10-09T01:26:54.432Z,0
2017-10-09T01:27:55.179Z,0
2017-10-09T01:28:55.793Z,0
2017-10-09T01:29:56.402Z,0
2017-10-09T01:30:57.008Z,0
2017-10-09T01:31:57.615Z,0
2017-10-09T01:32:58.373Z,0
2017-10-09T01:33:58.980Z,0
2017-10-09T01:34:59.618Z,0
2017-10-09T01:36:00.232Z,0
2017-10-09T01:37:00.868Z,0
2017-10-09T01:38:01.631Z,0
2017-10-09T01:39:02.237Z,0
2017-10-09T01:40:02.845Z,0
2017-10-09T01:41:03.484Z,0
2017-10-09T01:42:04.096Z,0
2017-10-09T01:43:04.850Z,0
2017-10-09T01:44:05.460Z,0
2017-10-09T01:45:06.068Z,0
2017-10-09T01:46:06.682Z,0
2017-10-09T01:47:07.323Z,0
2017-10-09T01:48:08.111Z,0
2017-10-09T01:49:08.721Z,0
2017-10-09T01:50:09.329Z,0
2017-10-09T01:51:09.941Z,0
2017-10-09T01:52:10.551Z,0
2017-10-09T01:53:11.308Z,0
2017-10-09T01:54:11.918Z,0
2017-10-09T01:55:12.525Z,0
2017-10-09T01:56:13.139Z,0
2017-10-09T01:57:13.750Z,0
2017-10-09T01:58:14.554Z,0
2017-10-09T01:59:15.164Z,0
2017-10-09T02:00:15.772Z,0
2017-10-09T02:01:16.380Z,0
2017-10-09T02:02:16.987Z,0
2017-10-09T02:03:17.745Z,0
2017-10-09T02:04:18.352Z,0
2017-10-09T02:05:18.959Z,0
2017-10-09T02:06:19.572Z,0
2017-10-09T02:07:20.209Z,0
2017-10-09T02:08:20.966Z,0
2017-10-09T02:09:21.579Z,0
2017-10-09T02:10:22.191Z,0
2017-10-09T02:11:22.829Z,0
2017-10-09T02:12:23.439Z,0
2017-10-09T02:13:24.201Z,0
2017-10-09T02:14:24.806Z,0
2017-10-09T02:15:25.416Z,0
2017-10-09T02:16:26.031Z,0
2017-10-09T02:17:26.637Z,0
2017-10-09T02:18:27.427Z,0
2017-10-09T02:19:28.040Z,0
2017-10-09T02:20:28.645Z,0
2017-10-09T02:21:29.251Z,0
2017-10-09T02:22:29.858Z,0
2017-10-09T02:23:30.646Z,0
2017-10-09T02:24:31.255Z,0
2017-10-09T02:25:31.862Z,0
2017-10-09T02:26:32.475Z,0
2017-10-09T02:27:33.081Z,0
2017-10-09T02:28:33.871Z,0
2017-10-09T02:29:34.479Z,0
2017-10-09T02:30:35.087Z,0
2017-10-09T02:31:35.698Z,0
2017-10-09T02:32:36.308Z,0
2017-10-09T02:33:37.071Z,0
2017-10-09T02:34:37.678Z,0
2017-10-09T02:35:38.290Z,0
2017-10-09T02:36:38.896Z,0
2017-10-09T02:37:39.509Z,0
2017-10-09T02:38:40.270Z,0
2017-10-09T02:39:40.877Z,0
2017-10-09T02:40:41.484Z,0
2017-10-09T02:41:42.093Z,0
2017-10-09T02:42:42.735Z,0
2017-10-09T02:43:43.489Z,0
2017-10-09T02:44:44.099Z,0
2017-10-09T02:45:44.709Z,0
2017-10-09T02:46:45.324Z,0
2017-10-09T02:47:45.928Z,0
2017-10-09T02:48:46.694Z,0
2017-10-09T02:49:47.299Z,0
2017-10-09T02:50:47.917Z,0
2017-10-09T02:51:48.553Z,0
2017-10-09T02:52:49.159Z,0
2017-10-09T02:53:49.947Z,0
2017-10-09T02:54:50.555Z,0
2017-10-09T02:55:51.161Z,0
2017-10-09T02:56:51.769Z,0
2017-10-09T02:57:52.376Z,0
2017-10-09T02:58:53.137Z,0
2017-10-09T02:59:53.744Z,0
2017-10-09T03:00:54.352Z,0
2017-10-09T03:01:54.958Z,0
2017-10-09T03:02:55.566Z,0
2017-10-09T03:03:56.323Z,0
2017-10-09T03:04:56.935Z,0
2017-10-09T03:05:57.545Z,0
2017-10-09T03:06:58.155Z,0
2017-10-09T03:07:58.788Z,0
2017-10-09T03:08:59.544Z,0
2017-10-09T03:10:00.156Z,0
2017-10-09T03:11:00.764Z,0
2017-10-09T03:12:01.371Z,0
2017-10-09T03:13:01.978Z,0
2017-10-09T03:14:02.740Z,0
2017-10-09T03:15:03.351Z,0
2017-10-09T03:16:03.964Z,0
2017-10-09T03:17:04.572Z,0
2017-10-09T03:18:05.176Z,0
2017-10-09T03:19:05.935Z,0
2017-10-09T03:20:06.549Z,0
2017-10-09T03:21:07.153Z,0
2017-10-09T03:22:07.760Z,0
2017-10-09T03:23:08.366Z,0
2017-10-09T03:24:09.131Z,0
2017-10-09T03:25:09.739Z,0
2017-10-09T03:26:10.346Z,0
2017-10-09T03:27:10.953Z,0
2017-10-09T03:28:11.566Z,0
2017-10-09T03:29:12.326Z,0
2017-10-09T03:30:12.933Z,0
2017-10-09T03:31:13.540Z,0
2017-10-09T03:32:14.145Z,0
2017-10-09T03:33:14.759Z,0
2017-10-09T03:34:15.515Z,0
2017-10-09T03:35:16.124Z,0
2017-10-09T03:36:16.761Z,0
2017-10-09T03:37:17.369Z,0
2017-10-09T03:38:17.983Z,0
2017-10-09T03:39:18.785Z,0
2017-10-09T03:40:19.401Z,0
2017-10-09T03:41:20.010Z,0
2017-10-09T03:42:20.617Z,0
2017-10-09T03:43:21.220Z,0
2017-10-09T03:44:21.978Z,0
2017-10-09T03:45:22.588Z,0
2017-10-09T03:46:23.197Z,0
2017-10-09T03:47:23.836Z,0
2017-10-09T03:48:24.453Z,0
2017-10-09T03:49:25.212Z,0
2017-10-09T03:50:25.818Z,0
2017-10-09T03:51:26.432Z,0
2017-10-09T03:52:27.043Z,0
2017-10-09T03:53:27.653Z,0
2017-10-09T03:54:28.408Z,0
2017-10-09T03:55:29.018Z,0
2017-10-09T03:56:29.625Z,0
2017-10-09T03:57:30.263Z,0
2017-10-09T03:58:30.872Z,0
2017-10-09T03:59:31.629Z,0
2017-10-09T04:00:32.240Z,0
2017-10-09T04:01:32.846Z,0
2017-10-09T04:02:33.454Z,0
2017-10-09T04:03:34.064Z,0
2017-10-09T04:04:34.819Z,0
2017-10-09T04:05:35.426Z,0
2017-10-09T04:06:36.039Z,0
2017-10-09T04:07:36.646Z,0
2017-10-09T04:08:37.258Z,0
2017-10-09T04:09:38.011Z,0
2017-10-09T04:10:38.619Z,0
2017-10-09T04:11:39.226Z,0
2017-10-09T04:12:39.835Z,0
2017-10-09T04:13:40.443Z,0
2017-10-09T04:14:41.201Z,0
2017-10-09T04:15:41.811Z,0
2017-10-09T04:16:42.423Z,0
2017-10-09T04:17:43.032Z,0
2017-10-09T04:18:43.638Z,0
2017-10-09T04:19:44.393Z,0
2017-10-09T04:20:45.001Z,0
2017-10-09T04:21:45.608Z,0
2017-10-09T04:22:46.217Z,0
2017-10-09T04:23:46.829Z,0
2017-10-09T04:24:47.589Z,0
2017-10-09T04:25:48.195Z,0
2017-10-09T04:26:48.803Z,0
2017-10-09T04:27:49.411Z,0
2017-10-09T04:28:50.018Z,0
2017-10-09T04:29:50.774Z,0
2017-10-09T04:30:51.385Z,0
2017-10-09T04:31:51.992Z,0
2017-10-09T04:32:52.601Z,0
2017-10-09T04:33:53.208Z,0
2017-10-09T04:34:53.966Z,0
2017-10-09T04:35:54.573Z,0
2017-10-09T04:36:55.182Z,0
2017-10-09T04:37:55.791Z,0
2017-10-09T04:38:56.404Z,0
2017-10-09T04:39:57.158Z,0
2017-10-09T04:40:57.777Z,0
2017-10-09T04:41:58.412Z,0
2017-10-09T04:42:59.030Z,0
2017-10-09T04:43:59.635Z,0
2017-10-09T04:45:00.391Z,0
2017-10-09T04:46:00.998Z,0
2017-10-09T04:47:01.607Z,0
2017-10-09T04:48:02.214Z,0
2017-10-09T04:49:02.825Z,0
2017-10-09T04:50:03.584Z,0
2017-10-09T04:51:04.195Z,0
2017-10-09T04:52:04.838Z,0
2017-10-09T04:53:05.444Z,0
2017-10-09T04:54:06.051Z,0
2017-10-09T04:55:06.822Z,0
2017-10-09T04:56:07.414Z,0
2017-10-09T04:57:08.021Z,0
2017-10-09T04:58:08.627Z,0
2017-10-09T04:59:09.237Z,0
2017-10-09T05:00:09.995Z,0
2017-10-09T05:01:10.601Z,0
2017-10-09T05:02:11.208Z,0
2017-10-09T05:03:11.816Z,0
2017-10-09T05:04:12.423Z,0
2017-10-09T05:05:13.183Z,0
2017-10-09T05:06:13.789Z,0
2017-10-09T05:07:14.397Z,0
2017-10-09T05:08:15.003Z,0
2017-10-09T05:09:15.610Z,0
2017-10-09T05:10:16.374Z,0
2017-10-09T05:11:16.978Z,0
2017-10-09T05:12:17.584Z,0
2017-10-09T05:13:18.196Z,0
2017-10-09T05:14:18.799Z,0
2017-10-09T05:15:19.557Z,0
2017-10-09T05:16:20.164Z,0
2017-10-09T05:17:20.800Z,0
2017-10-09T05:18:21.413Z,0
2017-10-09T05:19:22.023Z,0
2017-10-09T05:20:22.777Z,0
2017-10-09T05:21:23.421Z,0
2017-10-09T05:22:24.035Z,0
2017-10-09T05:23:24.640Z,0
2017-10-09T05:24:25.252Z,0
2017-10-09T05:25:26.006Z,0
2017-10-09T05:26:26.619Z,0
2017-10-09T05:27:27.228Z,0
2017-10-09T05:28:27.833Z,0
2017-10-09T05:29:28.462Z,0
2017-10-09T05:30:29.202Z,0
2017-10-09T05:31:29.806Z,0
2017-10-09T05:32:30.416Z,0
2017-10-09T05:33:31.058Z,0
2017-10-09T05:34:31.661Z,0
2017-10-09T05:35:32.449Z,0
2017-10-09T05:36:33.087Z,0
2017-10-09T05:37:33.698Z,0
2017-10-09T05:38:34.309Z,0
2017-10-09T05:39:34.950Z,0
2017-10-09T05:40:35.742Z,0
2017-10-09T05:41:36.349Z,0
2017-10-09T05:42:36.999Z,0
2017-10-09T05:43:37.602Z,0
2017-10-09T05:44:38.210Z,0
2017-10-09T05:45:38.973Z,0
2017-10-09T05:46:39.615Z,0
2017-10-09T05:47:40.221Z,0
2017-10-09T05:48:40.830Z,0
2017-10-09T05:49:41.443Z,0
2017-10-09T05:50:42.196Z,0
2017-10-09T05:51:42.804Z,0
2017-10-09T05:52:43.414Z,0
2017-10-09T05:53:44.023Z,0
2017-10-09T05:54:44.631Z,0
2017-10-09T05:55:45.421Z,0
2017-10-09T05:56:46.035Z,0
2017-10-09T05:57:46.646Z,0
2017-10-09T05:58:47.290Z,0
2017-10-09T05:59:47.903Z,0
2017-10-09T06:00:48.659Z,0
2017-10-09T06:01:49.301Z,0
2017-10-09T06:02:49.906Z,0
2017-10-09T06:03:50.520Z,0
2017-10-09T06:04:51.130Z,0
2017-10-09T06:05:51.888Z,0
2017-10-09T06:06:52.495Z,0
2017-10-09T06:07:53.103Z,0
2017-10-09T06:08:53.742Z,0
2017-10-09T06:09:54.348Z,0
2017-10-09T06:10:55.104Z,0
2017-10-09T06:11:55.712Z,0
2017-10-09T06:12:56.322Z,0
2017-10-09T06:13:56.927Z,0
2017-10-09T06:14:57.534Z,0
2017-10-09T06:15:58.298Z,0
2017-10-09T06:16:58.905Z,0
2017-10-09T06:17:59.512Z,0
2017-10-09T06:19:00.130Z,0
2017-10-09T06:20:00.735Z,0
2017-10-09T06:21:01.488Z,0
2017-10-09T06:22:02.104Z,0
2017-10-09T06:23:02.715Z,0
2017-10-09T06:24:03.323Z,0
2017-10-09T06:25:03.930Z,0
2017-10-09T06:26:04.688Z,0
2017-10-09T06:27:05.301Z,0
2017-10-09T06:28:05.904Z,5
2017-10-09T06:29:06.512Z,5
2017-10-09T06:30:07.121Z,5
2017-10-09T06:31:07.882Z,5
2017-10-09T06:32:08.489Z,5
2017-10-09T06:33:09.098Z,5
2017-10-09T06:34:09.707Z,5
2017-10-09T06:35:10.322Z,5
2017-10-09T06:36:11.080Z,5
2017-10-09T06:37:11.685Z,5
2017-10-09T06:38:12.294Z,5
2017-10-09T06:39:12.905Z,5
2017-10-09T06:40:13.513Z,5
2017-10-09T06:41:14.275Z,5
2017-10-09T06:42:14.919Z,5
2017-10-09T06:43:15.530Z,5
2017-10-09T06:44:16.137Z,5
2017-10-09T06:45:16.752Z,5
2017-10-09T06:46:17.508Z,5
2017-10-09T06:47:18.118Z,5
2017-10-09T06:48:18.726Z,5
2017-10-09T06:49:19.339Z,5
2017-10-09T06:50:19.947Z,5
2017-10-09T06:51:20.735Z,5
2017-10-09T06:52:21.343Z,5
2017-10-09T06:53:21.952Z,5
2017-10-09T06:54:22.590Z,5
2017-10-09T06:55:23.202Z,5
2017-10-09T06:56:23.960Z,5
2017-10-09T06:57:24.568Z,5
2017-10-09T06:58:25.186Z,5
2017-10-09T06:59:25.826Z,5
2017-10-09T07:00:26.436Z,5
2017-10-09T07:01:27.191Z,5
2017-10-09T07:02:27.803Z,5
2017-10-09T07:03:28.408Z,5
2017-10-09T07:04:29.017Z,5
2017-10-09T07:05:29.626Z,5
2017-10-09T07:06:30.386Z,10
2017-10-09T07:07:30.997Z,10
2017-10-09T07:08:31.610Z,10
2017-10-09T07:09:32.222Z,10
2017-10-09T07:10:32.831Z,10
2017-10-09T07:11:33.592Z,10
2017-10-09T07:12:34.205Z,10
2017-10-09T07:13:34.817Z,10
2017-10-09T07:14:35.432Z,10
2017-10-09T07:15:36.043Z,10
2017-10-09T07:16:36.802Z,10
2017-10-09T07:17:37.418Z,10
2017-10-09T07:18:38.026Z,10
2017-10-09T07:19:38.635Z,10
2017-10-09T07:20:39.252Z,10
2017-10-09T07:21:40.010Z,5
2017-10-09T07:22:40.647Z,5
2017-10-09T07:23:41.262Z,10
2017-10-09T07:24:41.869Z,10
2017-10-09T07:25:42.480Z,10
2017-10-09T07:26:43.245Z,10
2017-10-09T07:27:43.852Z,5
2017-10-09T07:28:44.462Z,5
2017-10-09T07:29:45.074Z,10
2017-10-09T07:30:45.682Z,5
2017-10-09T07:31:46.446Z,5
2017-10-09T07:32:47.062Z,5
2017-10-09T07:33:47.663Z,5
2017-10-09T07:34:48.272Z,5
2017-10-09T07:35:48.881Z,5
2017-10-09T07:36:49.638Z,5
2017-10-09T07:37:50.246Z,5
2017-10-09T07:38:50.859Z,5
2017-10-09T07:39:51.466Z,5
2017-10-09T07:40:52.079Z,5
2017-10-09T07:41:52.834Z,5
2017-10-09T07:42:53.447Z,5
2017-10-09T07:43:54.053Z,5
2017-10-09T07:44:54.667Z,5
2017-10-09T07:45:55.274Z,10
2017-10-09T07:46:56.039Z,5
2017-10-09T07:47:56.646Z,5
2017-10-09T07:48:57.256Z,10
2017-10-09T07:49:57.865Z,10
2017-10-09T07:50:58.477Z,10
2017-10-09T07:51:59.236Z,15
2017-10-09T07:52:59.852Z,15
2017-10-09T07:54:00.494Z,25
2017-10-09T07:55:01.104Z,30
2017-10-09T07:56:01.714Z,25
2017-10-09T07:57:02.475Z,25
2017-10-09T07:58:03.086Z,30
2017-10-09T07:59:03.697Z,30
2017-10-09T08:00:04.305Z,20
2017-10-09T08:01:04.915Z,25
2017-10-09T08:02:05.675Z,25
2017-10-09T08:03:06.292Z,30
2017-10-09T08:04:06.899Z,25
2017-10-09T08:05:07.539Z,25
2017-10-09T08:06:08.150Z,25
2017-10-09T08:07:08.922Z,20
2017-10-09T08:08:09.557Z,25
2017-10-09T08:09:10.165Z,25
2017-10-09T08:10:10.780Z,30
2017-10-09T08:11:11.396Z,25
2017-10-09T08:12:12.154Z,30
2017-10-09T08:13:12.766Z,30
2017-10-09T08:14:13.381Z,30
2017-10-09T08:15:13.990Z,30
2017-10-09T08:16:14.604Z,35
2017-10-09T08:17:15.369Z,35
2017-10-09T08:18:15.978Z,30
2017-10-09T08:19:16.593Z,30
2017-10-09T08:20:17.209Z,20
2017-10-09T08:21:17.819Z,20
2017-10-09T08:22:18.577Z,20
2017-10-09T08:23:19.189Z,20
2017-10-09T08:24:19.800Z,20
2017-10-09T08:25:20.410Z,15
2017-10-09T08:26:21.025Z,10
2017-10-09T08:27:21.789Z,15
2017-10-09T08:28:22.396Z,20
2017-10-09T08:29:23.014Z,20
2017-10-09T08:30:23.657Z,20
2017-10-09T08:31:24.269Z,20
2017-10-09T08:32:25.031Z,20
2017-10-09T08:33:25.642Z,20
2017-10-09T08:34:26.253Z,10
2017-10-09T08:35:26.863Z,10
2017-10-09T08:36:27.475Z,20
2017-10-09T08:37:28.237Z,20
2017-10-09T08:38:28.847Z,20
2017-10-09T08:39:29.459Z,20
2017-10-09T08:40:30.098Z,10
2017-10-09T08:41:30.684Z,10
2017-10-09T08:42:31.445Z,20
2017-10-09T08:43:32.056Z,15
2017-10-09T08:44:32.666Z,10
2017-10-09T08:45:33.277Z,10
2017-10-09T08:46:33.918Z,20
2017-10-09T08:47:34.678Z,20
2017-10-09T08:48:35.290Z,20
2017-10-09T08:49:35.901Z,25
2017-10-09T08:50:36.511Z,25
2017-10-09T08:51:37.124Z,25
2017-10-09T08:52:37.884Z,25
2017-10-09T08:53:38.496Z,25
2017-10-09T08:54:39.108Z,25
2017-10-09T08:55:39.722Z,30
2017-10-09T08:56:40.333Z,20
2017-10-09T08:57:41.204Z,25
2017-10-09T08:58:41.813Z,30
2017-10-09T08:59:42.425Z,25
2017-10-09T09:00:43.046Z,25
2017-10-09T09:01:43.684Z,20
2017-10-09T09:02:44.445Z,20
2017-10-09T09:03:45.061Z,15
2017-10-09T09:04:45.671Z,15
2017-10-09T09:05:46.282Z,20
2017-10-09T09:06:46.893Z,25
2017-10-09T09:07:47.660Z,25
2017-10-09T09:08:48.273Z,30
2017-10-09T09:09:48.882Z,30
2017-10-09T09:10:49.498Z,30
2017-10-09T09:11:50.105Z,30
2017-10-09T09:12:50.872Z,30
2017-10-09T09:13:51.480Z,30
2017-10-09T09:14:52.092Z,30
2017-10-09T09:15:52.705Z,30
2017-10-09T09:16:53.317Z,35
2017-10-09T09:17:54.077Z,35
2017-10-09T09:18:54.689Z,35
2017-10-09T09:19:55.302Z,35
2017-10-09T09:20:55.915Z,35
2017-10-09T09:21:56.526Z,35
2017-10-09T09:22:57.288Z,35
2017-10-09T09:23:57.897Z,35
2017-10-09T09:24:58.542Z,35
2017-10-09T09:25:59.151Z,35
2017-10-09T09:26:59.762Z,40
2017-10-09T09:28:00.525Z,35
2017-10-09T09:29:01.136Z,40
2017-10-09T09:30:01.747Z,45
2017-10-09T09:31:02.365Z,30
2017-10-09T09:32:03.005Z,40
2017-10-09T09:33:03.767Z,30
2017-10-09T09:34:04.388Z,40
2017-10-09T09:35:04.994Z,40
2017-10-09T09:36:05.611Z,40
2017-10-09T09:37:06.217Z,40
2017-10-09T09:38:06.979Z,45
2017-10-09T09:39:07.591Z,40
2017-10-09T09:40:08.202Z,45
2017-10-09T09:41:08.815Z,45
2017-10-09T09:42:09.428Z,40
2017-10-09T09:43:10.192Z,40
2017-10-09T09:44:10.803Z,50
2017-10-09T09:45:11.423Z,50
2017-10-09T09:46:12.033Z,50
2017-10-09T09:47:12.652Z,50
2017-10-09T09:48:13.412Z,50
2017-10-09T09:49:14.023Z,50
2017-10-09T09:50:14.635Z,50
2017-10-09T09:51:15.255Z,50
2017-10-09T09:52:15.864Z,50
2017-10-09T09:53:16.625Z,50
2017-10-09T09:54:17.244Z,50
2017-10-09T09:55:17.858Z,50
2017-10-09T09:56:18.469Z,50
2017-10-09T09:57:19.087Z,50
2017-10-09T09:58:20.000Z,50
2017-10-09T09:59:20.614Z,50
2017-10-09T10:00:21.225Z,50
2017-10-09T10:01:21.844Z,50
2017-10-09T10:02:22.456Z,55
2017-10-09T10:03:23.219Z,55
2017-10-09T10:04:23.834Z,55
2017-10-09T10:05:24.477Z,55
2017-10-09T10:06:25.092Z,55
2017-10-09T10:07:25.706Z,55
2017-10-09T10:08:26.468Z,55
2017-10-09T10:09:27.111Z,55
2017-10-09T10:10:27.725Z,55
2017-10-09T10:11:28.344Z,55
2017-10-09T10:12:28.954Z,50
2017-10-09T10:13:29.720Z,50
2017-10-09T10:14:30.335Z,55
2017-10-09T10:15:30.949Z,60
2017-10-09T10:16:31.593Z,60
2017-10-09T10:17:32.213Z,60
2017-10-09T10:18:33.127Z,60
2017-10-09T10:19:33.743Z,55
2017-10-09T10:20:34.364Z,55
2017-10-09T10:21:34.982Z,55
2017-10-09T10:22:35.597Z,60
2017-10-09T10:23:36.359Z,60
2017-10-09T10:24:36.974Z,60
2017-10-09T10:25:37.617Z,60
2017-10-09T10:26:38.232Z,60
2017-10-09T10:27:38.852Z,60
2017-10-09T10:28:39.615Z,60
2017-10-09T10:29:40.230Z,60
2017-10-09T10:30:40.845Z,60
2017-10-09T10:31:41.462Z,60
2017-10-09T10:32:42.079Z,60
2017-10-09T10:33:42.851Z,60
2017-10-09T10:34:43.465Z,60
2017-10-09T10:35:44.080Z,60
2017-10-09T10:36:44.696Z,60
2017-10-09T10:37:45.311Z,60
2017-10-09T10:38:46.080Z,60
2017-10-09T10:39:46.696Z,60
2017-10-09T10:40:47.313Z,60
2017-10-09T10:41:47.934Z,60
2017-10-09T10:42:48.583Z,60
2017-10-09T10:43:49.348Z,60
2017-10-09T10:44:50.002Z,60
2017-10-09T10:45:50.615Z,50
2017-10-09T10:46:51.262Z,55
2017-10-09T10:47:51.881Z,50
2017-10-09T10:48:52.650Z,60
2017-10-09T10:49:53.263Z,65
2017-10-09T10:50:53.881Z,60
2017-10-09T10:51:54.496Z,60
2017-10-09T10:52:55.147Z,60
2017-10-09T10:53:56.064Z,65
2017-10-09T10:54:56.684Z,60
2017-10-09T10:55:57.297Z,60
2017-10-09T10:56:57.945Z,70
2017-10-09T10:57:58.563Z,60
2017-10-09T10:58:59.331Z,55
2017-10-09T10:59:59.950Z,60
2017-10-09T11:01:00.569Z,60
2017-10-09T11:02:01.186Z,65
2017-10-09T11:03:01.801Z,60
2017-10-09T11:04:02.568Z,65
2017-10-09T11:05:03.183Z,60
2017-10-09T11:06:03.806Z,70
2017-10-09T11:07:04.451Z,60
2017-10-09T11:08:05.070Z,60
2017-10-09T11:09:05.837Z,65
2017-10-09T11:10:06.482Z,75
2017-10-09T11:11:07.099Z,65
2017-10-09T11:12:07.715Z,65
2017-10-09T11:13:08.330Z,70
2017-10-09T11:14:09.204Z,65
2017-10-09T11:15:09.822Z,65
2017-10-09T11:16:10.438Z,65
2017-10-09T11:17:11.052Z,65
2017-10-09T11:18:11.671Z,65
2017-10-09T11:19:12.440Z,65
2017-10-09T11:20:13.056Z,65
2017-10-09T11:21:13.673Z,65
2017-10-09T11:22:14.290Z,65
2017-10-09T11:23:14.911Z,65
2017-10-09T11:24:15.775Z,65
2017-10-09T11:25:16.392Z,70
2017-10-09T11:26:17.016Z,65
2017-10-09T11:27:17.666Z,65
2017-10-09T11:28:18.281Z,60
2017-10-09T11:29:19.047Z,60
2017-10-09T11:30:19.664Z,60
2017-10-09T11:31:20.281Z,55
2017-10-09T11:32:20.907Z,60
2017-10-09T11:33:21.519Z,60
2017-10-09T11:34:22.285Z,60
2017-10-09T11:35:22.904Z,60
2017-10-09T11:36:23.519Z,65
2017-10-09T11:37:24.134Z,55
2017-10-09T11:38:24.750Z,50
2017-10-09T11:39:25.525Z,60
2017-10-09T11:40:26.140Z,65
2017-10-09T11:41:26.758Z,70
2017-10-09T11:42:27.378Z,70
2017-10-09T11:43:27.992Z,65
2017-10-09T11:44:28.765Z,65
2017-10-09T11:45:29.384Z,60
2017-10-09T11:46:30.000Z,65
2017-10-09T11:47:30.616Z,60
2017-10-09T11:48:31.231Z,65
2017-10-09T11:49:31.999Z,65
2017-10-09T11:50:32.645Z,70
2017-10-09T11:51:33.261Z,70
2017-10-09T11:52:33.881Z,70
2017-10-09T11:53:34.503Z,65
2017-10-09T11:54:35.271Z,65
2017-10-09T11:55:35.914Z,70
2017-10-09T11:56:36.532Z,65
2017-10-09T11:57:37.179Z,65
2017-10-09T11:58:37.796Z,65
2017-10-09T11:59:38.563Z,65
2017-10-09T12:00:39.181Z,70
2017-10-09T12:01:39.830Z,70
2017-10-09T12:02:40.476Z,70
2017-10-09T12:03:41.097Z,70
2017-10-09T12:04:41.860Z,65
2017-10-09T12:05:42.477Z,65
2017-10-09T12:06:43.094Z,70
2017-10-09T12:07:43.710Z,70
2017-10-09T12:08:44.326Z,70
2017-10-09T12:09:45.094Z,70
2017-10-09T12:10:45.741Z,70
2017-10-09T12:11:46.357Z,65
2017-10-09T12:12:46.973Z,70
2017-10-09T12:13:47.597Z,70
2017-10-09T12:14:48.360Z,70
2017-10-09T12:15:48.978Z,70
2017-10-09T12:16:49.609Z,70
2017-10-09T12:17:50.254Z,70
2017-10-09T12:18:50.869Z,70
2017-10-09T12:19:51.635Z,70
2017-10-09T12:20:52.283Z,70
2017-10-09T12:21:52.905Z,70
2017-10-09T12:22:53.551Z,70
2017-10-09T12:23:54.169Z,70
2017-10-09T12:24:54.934Z,70
2017-10-09T12:25:55.553Z,70
2017-10-09T12:26:56.198Z,70
2017-10-09T12:27:56.845Z,70
2017-10-09T12:28:57.464Z,70
2017-10-09T12:29:58.230Z,70
2017-10-09T12:30:58.847Z,70
2017-10-09T12:31:59.464Z,70
2017-10-09T12:33:00.081Z,70
2017-10-09T12:34:00.699Z,70
2017-10-09T12:35:01.471Z,70
2017-10-09T12:36:02.120Z,70
2017-10-09T12:37:02.743Z,70
2017-10-09T12:38:03.360Z,75
2017-10-09T12:39:03.976Z,75
2017-10-09T12:40:04.743Z,75
2017-10-09T12:41:05.391Z,75
2017-10-09T12:42:06.009Z,75
2017-10-09T12:43:06.664Z,75
2017-10-09T12:44:07.285Z,75
2017-10-09T12:45:08.233Z,75
2017-10-09T12:46:08.850Z,75
2017-10-09T12:47:09.475Z,75
2017-10-09T12:48:10.090Z,75
2017-10-09T12:49:10.708Z,75
2017-10-09T12:50:11.578Z,75
2017-10-09T12:51:12.227Z,75
2017-10-09T12:52:12.842Z,75
2017-10-09T12:53:13.463Z,75
2017-10-09T12:54:14.078Z,80
2017-10-09T12:55:14.846Z,80
2017-10-09T12:56:15.470Z,80
2017-10-09T12:57:16.086Z,80
2017-10-09T12:58:16.702Z,80
2017-10-09T12:59:17.319Z,80
2017-10-09T13:00:18.088Z,80
2017-10-09T13:01:18.706Z,80
2017-10-09T13:02:19.324Z,80
2017-10-09T13:03:19.942Z,80
2017-10-09T13:04:20.561Z,80
2017-10-09T13:05:21.329Z,75
2017-10-09T13:06:21.946Z,80
2017-10-09T13:07:22.563Z,80
2017-10-09T13:08:23.185Z,80
2017-10-09T13:09:23.800Z,80
2017-10-09T13:10:24.567Z,75
2017-10-09T13:11:25.185Z,75
2017-10-09T13:12:25.809Z,80
2017-10-09T13:13:26.429Z,80
2017-10-09T13:14:27.045Z,80
2017-10-09T13:15:27.814Z,80
2017-10-09T13:16:28.430Z,80
2017-10-09T13:17:29.045Z,80
2017-10-09T13:18:29.663Z,80
2017-10-09T13:19:30.282Z,80
2017-10-09T13:20:31.054Z,80
2017-10-09T13:21:31.705Z,80
2017-10-09T13:22:32.322Z,80
2017-10-09T13:23:32.939Z,80
2017-10-09T13:24:33.558Z,80
2017-10-09T13:25:34.324Z,80
2017-10-09T13:26:34.976Z,80
2017-10-09T13:27:35.600Z,80
2017-10-09T13:28:36.213Z,80
2017-10-09T13:29:36.837Z,80
2017-10-09T13:30:37.609Z,80
2017-10-09T13:31:38.224Z,80
2017-10-09T13:32:38.843Z,80
2017-10-09T13:33:39.467Z,80
2017-10-09T13:34:40.084Z,80
2017-10-09T13:35:40.849Z,80
2017-10-09T13:36:41.469Z,80
2017-10-09T13:37:42.092Z,85
2017-10-09T13:38:42.709Z,85
2017-10-09T13:39:43.329Z,85
2017-10-09T13:40:44.099Z,85
2017-10-09T13:41:44.724Z,85
2017-10-09T13:42:45.341Z,85
2017-10-09T13:43:45.959Z,85
2017-10-09T13:44:46.608Z,85
2017-10-09T13:45:47.377Z,85
2017-10-09T13:46:47.998Z,85
2017-10-09T13:47:48.621Z,85
2017-10-09T13:48:49.240Z,85
2017-10-09T13:49:49.861Z,85
2017-10-09T13:50:50.677Z,85
2017-10-09T13:51:51.296Z,85
2017-10-09T13:52:51.919Z,85
2017-10-09T13:53:52.541Z,85
2017-10-09T13:54:53.158Z,90
2017-10-09T13:55:53.932Z,85
2017-10-09T13:56:54.548Z,85
2017-10-09T13:57:55.167Z,85
2017-10-09T13:58:55.787Z,85
2017-10-09T13:59:56.405Z,85
2017-10-09T14:00:57.186Z,85
2017-10-09T14:01:57.794Z,85
2017-10-09T14:02:58.412Z,85
2017-10-09T14:03:59.033Z,85
2017-10-09T14:04:59.652Z,85
2017-10-09T14:06:00.458Z,85
2017-10-09T14:07:01.080Z,85
2017-10-09T14:08:01.703Z,85
2017-10-09T14:09:02.320Z,85
2017-10-09T14:10:02.972Z,85
2017-10-09T14:11:03.739Z,85
2017-10-09T14:12:04.357Z,85
2017-10-09T14:13:04.975Z,85
2017-10-09T14:14:05.595Z,85
2017-10-09T14:15:06.214Z,85
2017-10-09T14:16:06.986Z,85
2017-10-09T14:17:07.604Z,85
2017-10-09T14:18:08.225Z,85
2017-10-09T14:19:08.849Z,85
2017-10-09T14:20:09.497Z,85
2017-10-09T14:21:10.267Z,85
2017-10-09T14:22:10.885Z,85
2017-10-09T14:23:11.510Z,85
2017-10-09T14:24:12.132Z,85
2017-10-09T14:25:12.751Z,85
2017-10-09T14:26:13.549Z,85
2017-10-09T14:27:14.167Z,85
2017-10-09T14:28:14.785Z,85
2017-10-09T14:29:15.405Z,85
2017-10-09T14:30:16.033Z,85
2017-10-09T14:40:22.692Z,65
2017-10-09T14:41:23.463Z,85
2017-10-09T14:42:24.087Z,85
2017-10-09T14:43:24.706Z,85
2017-10-09T14:44:25.331Z,85
2017-10-09T14:45:25.949Z,80
2017-10-09T14:46:26.721Z,85
2017-10-09T14:47:27.340Z,80
2017-10-09T14:48:27.962Z,80
2017-10-09T14:49:28.582Z,80
2017-10-09T14:50:29.204Z,80